sensor_id;sensor_type;location;lat;lon;timestamp;pressure;altitude;pressure_sealevel;temperature;humidity
21111;BME280;10713;51.912;4.494;2023-03-24T00:00:42;99671.72;;;12.58;100.00
21111;BME280;10713;51.912;4.494;2023-03-24T00:03:08;99672.78;;;12.55;100.00
21111;BME280;10713;51.912;4.494;2023-03-24T00:05:35;99666.09;;;12.50;100.00
21111;BME280;10713;51.912;4.494;2023-03-24T00:08:00;99660.78;;;12.50;100.00
21111;BME280;10713;51.912;4.494;2023-03-24T00:10:28;99673.81;;;12.53;100.00
21111;BME280;10713;51.912;4.494;2023-03-24T00:12:59;99660.50;;;12.54;100.00
21111;BME280;10713;51.912;4.494;2023-03-24T00:15:26;99650.66;;;12.56;100.00
21111;BME280;10713;51.912;4.494;2023-03-24T00:17:52;99667.19;;;12.60;100.00
21111;BME280;10713;51.912;4.494;2023-03-24T00:20:21;99661.47;;;12.66;100.00
21111;BME280;10713;51.912;4.494;2023-03-24T00:22:49;99651.66;;;12.68;100.00
21111;BME280;10713;51.912;4.494;2023-03-24T00:25:21;99657.38;;;12.75;100.00
21111;BME280;10713;51.912;4.494;2023-03-24T00:27:52;99650.91;;;12.79;100.00
21111;BME280;10713;51.912;4.494;2023-03-24T00:30:18;99640.31;;;12.79;100.00
21111;BME280;10713;51.912;4.494;2023-03-24T00:32:44;99628.16;;;12.76;100.00
21111;BME280;10713;51.912;4.494;2023-03-24T00:35:12;99627.81;;;12.81;100.00
21111;BME280;10713;51.912;4.494;2023-03-24T00:37:39;99626.97;;;12.80;100.00
21111;BME280;10713;51.912;4.494;2023-03-24T00:40:09;99615.44;;;12.81;100.00
21111;BME280;10713;51.912;4.494;2023-03-24T00:42:38;99620.41;;;12.86;100.00
21111;BME280;10713;51.912;4.494;2023-03-24T00:45:05;99627.63;;;12.84;100.00
21111;BME280;10713;51.912;4.494;2023-03-24T00:47:32;99625.19;;;12.81;100.00
21111;BME280;10713;51.912;4.494;2023-03-24T00:50:04;99624.97;;;12.84;100.00
21111;BME280;10713;51.912;4.494;2023-03-24T00:52:30;99610.47;;;12.77;100.00
21111;BME280;10713;51.912;4.494;2023-03-24T00:54:59;99615.75;;;12.77;100.00
21111;BME280;10713;51.912;4.494;2023-03-24T00:57:27;99608.34;;;12.82;100.00
21111;BME280;10713;51.912;4.494;2023-03-24T00:59:54;99607.81;;;12.77;100.00
21111;BME280;10713;51.912;4.494;2023-03-24T01:02:23;99604.31;;;12.76;100.00
21111;BME280;10713;51.912;4.494;2023-03-24T01:04:59;99606.53;;;12.82;100.00
21111;BME280;10713;51.912;4.494;2023-03-24T01:07:27;99596.59;;;12.86;100.00
21111;BME280;10713;51.912;4.494;2023-03-24T01:09:54;99598.19;;;12.89;100.00
21111;BME280;10713;51.912;4.494;2023-03-24T01:12:26;99601.59;;;12.91;100.00
21111;BME280;10713;51.912;4.494;2023-03-24T01:14:53;99595.31;;;12.92;100.00
21111;BME280;10713;51.912;4.494;2023-03-24T01:17:19;99608.34;;;12.95;100.00
21111;BME280;10713;51.912;4.494;2023-03-24T01:19:47;99606.88;;;12.91;100.00
21111;BME280;10713;51.912;4.494;2023-03-24T01:22:13;99613.22;;;12.88;100.00
21111;BME280;10713;51.912;4.494;2023-03-24T01:24:38;99608.03;;;12.87;100.00
21111;BME280;10713;51.912;4.494;2023-03-24T01:27:04;99601.03;;;12.85;100.00
21111;BME280;10713;51.912;4.494;2023-03-24T01:29:29;99607.19;;;12.86;100.00
21111;BME280;10713;51.912;4.494;2023-03-24T01:31:55;99608.88;;;12.87;100.00
21111;BME280;10713;51.912;4.494;2023-03-24T01:34:21;99620.41;;;12.86;100.00
21111;BME280;10713;51.912;4.494;2023-03-24T01:36:46;99641.50;;;13.00;100.00
21111;BME280;10713;51.912;4.494;2023-03-24T01:39:12;99651.44;;;12.84;100.00
21111;BME280;10713;51.912;4.494;2023-03-24T01:41:38;99662.09;;;12.57;100.00
21111;BME280;10713;51.912;4.494;2023-03-24T01:44:34;99669.63;;;12.36;100.00
21111;BME280;10713;51.912;4.494;2023-03-24T01:47:02;99672.81;;;12.28;100.00
21111;BME280;10713;51.912;4.494;2023-03-24T01:49:52;99676.69;;;12.23;100.00
21111;BME280;10713;51.912;4.494;2023-03-24T01:52:25;99683.47;;;12.27;100.00
21111;BME280;10713;51.912;4.494;2023-03-24T01:54:54;99682.91;;;12.22;100.00
21111;BME280;10713;51.912;4.494;2023-03-24T01:57:31;99681.25;;;12.06;100.00
21111;BME280;10713;51.912;4.494;2023-03-24T01:59:59;99679.56;;;12.05;100.00
21111;BME280;10713;51.912;4.494;2023-03-24T02:02:28;99694.88;;;12.00;100.00
21111;BME280;10713;51.912;4.494;2023-03-24T02:04:58;99704.91;;;11.95;100.00
21111;BME280;10713;51.912;4.494;2023-03-24T02:09:56;99705.53;;;11.84;100.00
21111;BME280;10713;51.912;4.494;2023-03-24T02:12:22;99718.84;;;11.83;100.00
21111;BME280;10713;51.912;4.494;2023-03-24T02:14:48;99715.44;;;11.81;100.00
21111;BME280;10713;51.912;4.494;2023-03-24T02:17:26;99720.94;;;11.78;100.00
21111;BME280;10713;51.912;4.494;2023-03-24T02:47:29;99780.97;;;11.17;100.00
21111;BME280;10713;51.912;4.494;2023-03-24T02:50:07;99790.13;;;11.11;100.00
21111;BME280;10713;51.912;4.494;2023-03-24T02:52:49;99791.56;;;11.01;100.00
21111;BME280;10713;51.912;4.494;2023-03-24T02:55:21;99800.53;;;10.98;100.00
21111;BME280;10713;51.912;4.494;2023-03-24T02:57:55;99810.59;;;10.92;100.00
21111;BME280;10713;51.912;4.494;2023-03-24T03:00:34;99806.50;;;10.86;100.00
21111;BME280;10713;51.912;4.494;2023-03-24T03:06:01;99809.00;;;10.73;100.00
21111;BME280;10713;51.912;4.494;2023-03-24T03:08:29;99830.38;;;10.69;100.00
21111;BME280;10713;51.912;4.494;2023-03-24T03:11:00;99816.56;;;10.64;100.00
21111;BME280;10713;51.912;4.494;2023-03-24T03:16:03;99826.13;;;10.50;100.00
21111;BME280;10713;51.912;4.494;2023-03-24T03:18:39;99838.63;;;10.47;100.00
21111;BME280;10713;51.912;4.494;2023-03-24T03:21:12;99842.19;;;10.46;100.00
21111;BME280;10713;51.912;4.494;2023-03-24T03:24:08;99838.53;;;10.48;100.00
21111;BME280;10713;51.912;4.494;2023-03-24T03:26:35;99841.78;;;10.53;100.00
21111;BME280;10713;51.912;4.494;2023-03-24T03:29:06;99842.63;;;10.54;100.00
21111;BME280;10713;51.912;4.494;2023-03-24T03:31:39;99846.13;;;10.54;100.00
21111;BME280;10713;51.912;4.494;2023-03-24T03:39:37;99855.06;;;10.52;100.00
21111;BME280;10713;51.912;4.494;2023-03-24T03:42:05;99856.59;;;10.56;100.00
21111;BME280;10713;51.912;4.494;2023-03-24T03:44:31;99847.91;;;10.54;100.00
21111;BME280;10713;51.912;4.494;2023-03-24T03:46:57;99869.94;;;10.53;100.00
21111;BME280;10713;51.912;4.494;2023-03-24T03:49:23;99864.81;;;10.50;100.00
21111;BME280;10713;51.912;4.494;2023-03-24T03:51:50;99863.91;;;10.51;100.00
21111;BME280;10713;51.912;4.494;2023-03-24T03:54:16;99868.06;;;10.55;100.00
21111;BME280;10713;51.912;4.494;2023-03-24T03:56:43;99856.06;;;10.49;100.00
21111;BME280;10713;51.912;4.494;2023-03-24T03:59:22;99858.19;;;10.43;100.00
21111;BME280;10713;51.912;4.494;2023-03-24T04:01:48;99853.31;;;10.35;100.00
21111;BME280;10713;51.912;4.494;2023-03-24T04:04:42;99862.25;;;10.32;100.00
21111;BME280;10713;51.912;4.494;2023-03-24T04:13:05;99869.44;;;10.13;100.00
21111;BME280;10713;51.912;4.494;2023-03-24T04:15:32;99883.00;;;10.05;100.00
21111;BME280;10713;51.912;4.494;2023-03-24T04:20:42;99888.44;;;10.02;100.00
21111;BME280;10713;51.912;4.494;2023-03-24T04:23:23;99896.03;;;10.08;100.00
21111;BME280;10713;51.912;4.494;2023-03-24T04:28:52;99895.69;;;9.99;100.00
21111;BME280;10713;51.912;4.494;2023-03-24T04:31:57;99903.50;;;10.00;100.00
21111;BME280;10713;51.912;4.494;2023-03-24T04:37:07;99904.88;;;9.90;100.00
21111;BME280;10713;51.912;4.494;2023-03-24T04:39:37;99911.09;;;9.89;100.00
21111;BME280;10713;51.912;4.494;2023-03-24T04:42:08;99911.72;;;9.94;100.00
21111;BME280;10713;51.912;4.494;2023-03-24T04:44:34;99909.16;;;9.92;100.00
21111;BME280;10713;51.912;4.494;2023-03-24T04:47:01;99909.44;;;10.04;100.00
21111;BME280;10713;51.912;4.494;2023-03-24T04:49:27;99918.78;;;9.93;100.00
21111;BME280;10713;51.912;4.494;2023-03-24T04:51:53;99929.16;;;9.97;100.00
21111;BME280;10713;51.912;4.494;2023-03-24T04:54:19;99935.28;;;9.97;100.00
21111;BME280;10713;51.912;4.494;2023-03-24T04:56:50;99926.59;;;9.95;100.00
21111;BME280;10713;51.912;4.494;2023-03-24T04:59:17;99935.66;;;9.89;100.00
21111;BME280;10713;51.912;4.494;2023-03-24T05:01:44;99926.91;;;9.89;100.00
21111;BME280;10713;51.912;4.494;2023-03-24T05:04:21;99929.66;;;9.87;100.00
21111;BME280;10713;51.912;4.494;2023-03-24T05:06:47;99933.13;;;9.88;100.00
21111;BME280;10713;51.912;4.494;2023-03-24T05:09:14;99939.94;;;9.92;100.00
21111;BME280;10713;51.912;4.494;2023-03-24T05:11:42;99935.50;;;9.92;100.00
21111;BME280;10713;51.912;4.494;2023-03-24T05:14:08;99945.63;;;10.02;100.00
21111;BME280;10713;51.912;4.494;2023-03-24T05:16:33;99945.69;;;10.00;100.00
21111;BME280;10713;51.912;4.494;2023-03-24T05:18:58;99956.31;;;9.99;100.00
21111;BME280;10713;51.912;4.494;2023-03-24T05:21:24;99964.97;;;10.01;100.00
21111;BME280;10713;51.912;4.494;2023-03-24T05:23:49;99965.75;;;10.03;100.00
21111;BME280;10713;51.912;4.494;2023-03-24T05:26:15;99962.59;;;10.13;100.00
21111;BME280;10713;51.912;4.494;2023-03-24T05:28:40;99962.44;;;10.17;100.00
21111;BME280;10713;51.912;4.494;2023-03-24T05:31:05;99961.47;;;10.18;100.00
21111;BME280;10713;51.912;4.494;2023-03-24T05:33:31;99965.53;;;10.25;100.00
21111;BME280;10713;51.912;4.494;2023-03-24T05:35:56;99971.34;;;10.31;100.00
21111;BME280;10713;51.912;4.494;2023-03-24T05:38:22;99970.25;;;10.35;100.00
21111;BME280;10713;51.912;4.494;2023-03-24T05:40:47;99971.97;;;10.36;100.00
21111;BME280;10713;51.912;4.494;2023-03-24T05:43:12;99974.50;;;10.38;100.00
21111;BME280;10713;51.912;4.494;2023-03-24T05:45:38;99976.31;;;10.37;100.00
21111;BME280;10713;51.912;4.494;2023-03-24T05:48:04;99971.72;;;10.41;100.00
21111;BME280;10713;51.912;4.494;2023-03-24T05:50:29;99962.63;;;10.47;100.00
21111;BME280;10713;51.912;4.494;2023-03-24T05:52:55;99975.66;;;10.50;100.00
21111;BME280;10713;51.912;4.494;2023-03-24T05:55:21;99976.44;;;10.52;100.00
21111;BME280;10713;51.912;4.494;2023-03-24T05:57:49;99991.59;;;10.48;100.00
21111;BME280;10713;51.912;4.494;2023-03-24T06:00:15;99996.94;;;10.47;100.00
21111;BME280;10713;51.912;4.494;2023-03-24T06:02:43;99991.81;;;10.44;100.00
21111;BME280;10713;51.912;4.494;2023-03-24T06:05:09;99994.38;;;10.45;100.00
21111;BME280;10713;51.912;4.494;2023-03-24T06:07:37;99994.28;;;10.47;100.00
21111;BME280;10713;51.912;4.494;2023-03-24T06:10:04;99999.34;;;10.51;100.00
21111;BME280;10713;51.912;4.494;2023-03-24T06:12:32;100004.38;;;10.56;100.00
21111;BME280;10713;51.912;4.494;2023-03-24T06:14:58;100011.19;;;10.60;100.00
21111;BME280;10713;51.912;4.494;2023-03-24T06:17:23;100006.88;;;10.59;100.00
21111;BME280;10713;51.912;4.494;2023-03-24T06:19:52;100016.25;;;10.65;100.00
21111;BME280;10713;51.912;4.494;2023-03-24T06:22:18;100017.16;;;10.64;100.00
21111;BME280;10713;51.912;4.494;2023-03-24T06:24:44;100009.91;;;10.67;100.00
21111;BME280;10713;51.912;4.494;2023-03-24T06:27:11;100013.47;;;10.83;100.00
21111;BME280;10713;51.912;4.494;2023-03-24T06:29:39;100035.38;;;10.86;100.00
21111;BME280;10713;51.912;4.494;2023-03-24T06:32:07;100035.19;;;10.89;100.00
21111;BME280;10713;51.912;4.494;2023-03-24T06:34:33;100024.88;;;10.84;100.00
21111;BME280;10713;51.912;4.494;2023-03-24T06:36:58;100037.06;;;10.87;100.00
21111;BME280;10713;51.912;4.494;2023-03-24T06:39:24;100040.94;;;10.97;100.00
21111;BME280;10713;51.912;4.494;2023-03-24T06:41:50;100044.84;;;11.05;100.00
21111;BME280;10713;51.912;4.494;2023-03-24T06:44:16;100045.88;;;11.03;100.00
21111;BME280;10713;51.912;4.494;2023-03-24T06:46:42;100049.03;;;11.10;100.00
21111;BME280;10713;51.912;4.494;2023-03-24T06:49:08;100051.34;;;11.16;100.00
21111;BME280;10713;51.912;4.494;2023-03-24T06:51:33;100045.22;;;11.47;100.00
21111;BME280;10713;51.912;4.494;2023-03-24T06:53:59;100054.09;;;11.93;100.00
21111;BME280;10713;51.912;4.494;2023-03-24T06:56:25;100051.09;;;12.00;100.00
21111;BME280;10713;51.912;4.494;2023-03-24T06:58:51;100052.19;;;12.11;100.00
21111;BME280;10713;51.912;4.494;2023-03-24T07:01:16;100051.94;;;12.30;100.00
21111;BME280;10713;51.912;4.494;2023-03-24T07:03:41;100056.53;;;12.43;100.00
21111;BME280;10713;51.912;4.494;2023-03-24T07:06:08;100043.53;;;12.68;100.00
21111;BME280;10713;51.912;4.494;2023-03-24T07:08:35;100043.53;;;12.97;100.00
21111;BME280;10713;51.912;4.494;2023-03-24T07:11:01;100047.97;;;13.11;100.00
21111;BME280;10713;51.912;4.494;2023-03-24T07:13:27;100054.94;;;13.55;100.00
21111;BME280;10713;51.912;4.494;2023-03-24T07:15:52;100059.69;;;14.04;100.00
21111;BME280;10713;51.912;4.494;2023-03-24T07:18:18;100054.44;;;14.16;100.00
21111;BME280;10713;51.912;4.494;2023-03-24T07:20:44;100069.56;;;14.02;100.00
21111;BME280;10713;51.912;4.494;2023-03-24T07:23:09;100065.34;;;13.85;100.00
21111;BME280;10713;51.912;4.494;2023-03-24T07:25:35;100068.88;;;13.85;100.00
21111;BME280;10713;51.912;4.494;2023-03-24T07:28:00;100078.88;;;13.94;100.00
21111;BME280;10713;51.912;4.494;2023-03-24T07:30:26;100073.56;;;13.94;100.00
21111;BME280;10713;51.912;4.494;2023-03-24T07:32:51;100084.19;;;13.94;100.00
21111;BME280;10713;51.912;4.494;2023-03-24T07:35:18;100086.88;;;13.80;100.00
21111;BME280;10713;51.912;4.494;2023-03-24T07:37:44;100087.91;;;13.92;100.00
21111;BME280;10713;51.912;4.494;2023-03-24T07:40:11;100084.69;;;14.14;100.00
21111;BME280;10713;51.912;4.494;2023-03-24T07:42:41;100078.44;;;14.55;100.00
21111;BME280;10713;51.912;4.494;2023-03-24T07:45:11;100075.91;;;14.92;100.00
21111;BME280;10713;51.912;4.494;2023-03-24T07:47:37;100072.50;;;15.02;100.00
21111;BME280;10713;51.912;4.494;2023-03-24T07:50:07;100068.53;;;15.21;100.00
21111;BME280;10713;51.912;4.494;2023-03-24T07:52:40;100082.03;;;15.43;100.00
21111;BME280;10713;51.912;4.494;2023-03-24T07:55:07;100065.50;;;16.47;100.00
21111;BME280;10713;51.912;4.494;2023-03-24T07:57:34;100045.03;;;16.94;100.00
21111;BME280;10713;51.912;4.494;2023-03-24T08:00:05;100061.13;;;16.81;100.00
21111;BME280;10713;51.912;4.494;2023-03-24T08:02:43;100065.94;;;17.89;100.00
21111;BME280;10713;51.912;4.494;2023-03-24T08:05:10;100057.53;;;18.67;100.00
21111;BME280;10713;51.912;4.494;2023-03-24T08:07:38;100062.13;;;18.98;100.00
21111;BME280;10713;51.912;4.494;2023-03-24T08:10:04;100061.03;;;19.41;100.00
21111;BME280;10713;51.912;4.494;2023-03-24T08:12:30;100053.09;;;19.79;100.00
21111;BME280;10713;51.912;4.494;2023-03-24T08:14:56;100057.47;;;20.00;100.00
21111;BME280;10713;51.912;4.494;2023-03-24T08:17:21;100056.13;;;19.55;100.00
21111;BME280;10713;51.912;4.494;2023-03-24T08:19:46;100060.09;;;19.21;100.00
21111;BME280;10713;51.912;4.494;2023-03-24T08:22:12;100054.03;;;18.67;100.00
21111;BME280;10713;51.912;4.494;2023-03-24T08:24:38;100051.19;;;18.06;100.00
21111;BME280;10713;51.912;4.494;2023-03-24T08:27:03;100058.50;;;17.26;100.00
21111;BME280;10713;51.912;4.494;2023-03-24T08:29:32;100068.34;;;16.68;100.00
21111;BME280;10713;51.912;4.494;2023-03-24T08:32:00;100068.94;;;16.25;100.00
21111;BME280;10713;51.912;4.494;2023-03-24T08:34:26;100072.03;;;15.84;100.00
21111;BME280;10713;51.912;4.494;2023-03-24T08:36:52;100075.97;;;15.78;100.00
21111;BME280;10713;51.912;4.494;2023-03-24T08:39:18;100079.94;;;16.20;100.00
21111;BME280;10713;51.912;4.494;2023-03-24T08:41:45;100086.06;;;16.10;100.00
21111;BME280;10713;51.912;4.494;2023-03-24T08:44:10;100094.34;;;15.94;100.00
21111;BME280;10713;51.912;4.494;2023-03-24T08:46:36;100090.50;;;15.74;100.00
21111;BME280;10713;51.912;4.494;2023-03-24T08:49:04;100097.66;;;15.35;100.00
21111;BME280;10713;51.912;4.494;2023-03-24T08:51:30;100103.75;;;15.12;100.00
21111;BME280;10713;51.912;4.494;2023-03-24T08:53:56;100098.19;;;15.27;100.00
21111;BME280;10713;51.912;4.494;2023-03-24T08:56:22;100111.56;;;15.77;100.00
21111;BME280;10713;51.912;4.494;2023-03-24T08:58:48;100107.59;;;16.07;100.00
21111;BME280;10713;51.912;4.494;2023-03-24T09:01:16;100101.50;;;16.53;100.00
21111;BME280;10713;51.912;4.494;2023-03-24T09:03:41;100103.47;;;17.20;100.00
21111;BME280;10713;51.912;4.494;2023-03-24T09:06:09;100107.34;;;17.61;100.00
21111;BME280;10713;51.912;4.494;2023-03-24T09:08:35;100083.06;;;17.64;100.00
21111;BME280;10713;51.912;4.494;2023-03-24T09:11:01;100101.25;;;17.14;100.00
21111;BME280;10713;51.912;4.494;2023-03-24T09:13:26;100117.22;;;16.91;100.00
21111;BME280;10713;51.912;4.494;2023-03-24T09:15:57;100120.38;;;16.85;100.00
21111;BME280;10713;51.912;4.494;2023-03-24T09:18:22;100121.00;;;17.11;100.00
21111;BME280;10713;51.912;4.494;2023-03-24T09:20:48;100114.97;;;16.98;100.00
21111;BME280;10713;51.912;4.494;2023-03-24T09:23:14;100122.56;;;16.80;100.00
21111;BME280;10713;51.912;4.494;2023-03-24T09:25:40;100115.34;;;16.69;100.00
21111;BME280;10713;51.912;4.494;2023-03-24T09:28:05;100123.31;;;16.58;100.00
21111;BME280;10713;51.912;4.494;2023-03-24T09:30:32;100124.28;;;16.57;100.00
21111;BME280;10713;51.912;4.494;2023-03-24T09:32:58;100140.66;;;16.63;100.00
21111;BME280;10713;51.912;4.494;2023-03-24T09:35:25;100123.03;;;16.50;100.00
21111;BME280;10713;51.912;4.494;2023-03-24T09:37:52;100123.69;;;16.29;100.00
21111;BME280;10713;51.912;4.494;2023-03-24T09:40:24;100135.00;;;15.96;100.00
21111;BME280;10713;51.912;4.494;2023-03-24T09:42:55;100136.03;;;15.57;100.00
21111;BME280;10713;51.912;4.494;2023-03-24T09:45:22;100141.47;;;15.68;100.00
21111;BME280;10713;51.912;4.494;2023-03-24T09:48:07;100136.25;;;15.53;100.00
21111;BME280;10713;51.912;4.494;2023-03-24T09:53:27;100136.81;;;16.19;100.00
21111;BME280;10713;51.912;4.494;2023-03-24T09:55:57;100142.47;;;16.39;100.00
21111;BME280;10713;51.912;4.494;2023-03-24T09:58:29;100145.97;;;16.63;100.00
21111;BME280;10713;51.912;4.494;2023-03-24T10:00:56;100136.25;;;16.51;100.00
21111;BME280;10713;51.912;4.494;2023-03-24T10:03:22;100125.38;;;16.89;100.00
21111;BME280;10713;51.912;4.494;2023-03-24T10:08:43;100128.47;;;18.51;100.00
21111;BME280;10713;51.912;4.494;2023-03-24T10:11:27;100118.50;;;18.53;100.00
21111;BME280;10713;51.912;4.494;2023-03-24T10:14:12;100124.63;;;18.43;100.00
21111;BME280;10713;51.912;4.494;2023-03-24T10:19:44;100125.00;;;18.07;100.00
21111;BME280;10713;51.912;4.494;2023-03-24T10:22:24;100122.84;;;17.55;100.00
21111;BME280;10713;51.912;4.494;2023-03-24T10:25:05;100127.44;;;17.76;100.00
21111;BME280;10713;51.912;4.494;2023-03-24T10:27:58;100135.69;;;18.39;100.00
21111;BME280;10713;51.912;4.494;2023-03-24T10:30:28;100124.63;;;18.64;100.00
21111;BME280;10713;51.912;4.494;2023-03-24T10:32:56;100134.25;;;18.35;100.00
21111;BME280;10713;51.912;4.494;2023-03-24T10:35:49;100144.09;;;17.79;100.00
21111;BME280;10713;51.912;4.494;2023-03-24T10:38:18;100138.75;;;17.57;100.00
21111;BME280;10713;51.912;4.494;2023-03-24T10:40:45;100146.41;;;17.84;100.00
21111;BME280;10713;51.912;4.494;2023-03-24T10:43:11;100144.44;;;17.75;100.00
21111;BME280;10713;51.912;4.494;2023-03-24T10:45:39;100146.50;;;17.15;100.00
21111;BME280;10713;51.912;4.494;2023-03-24T10:48:06;100144.91;;;17.01;100.00
21111;BME280;10713;51.912;4.494;2023-03-24T10:50:33;100142.97;;;17.03;100.00
21111;BME280;10713;51.912;4.494;2023-03-24T10:53:00;100143.19;;;17.00;100.00
21111;BME280;10713;51.912;4.494;2023-03-24T10:55:36;100151.03;;;16.55;100.00
21111;BME280;10713;51.912;4.494;2023-03-24T10:58:37;100152.41;;;16.37;100.00
21111;BME280;10713;51.912;4.494;2023-03-24T11:03:43;100139.84;;;17.43;100.00
21111;BME280;10713;51.912;4.494;2023-03-24T11:06:19;100135.84;;;17.71;100.00
21111;BME280;10713;51.912;4.494;2023-03-24T11:08:45;100152.94;;;17.58;100.00
21111;BME280;10713;51.912;4.494;2023-03-24T11:11:28;100134.88;;;17.84;100.00
21111;BME280;10713;51.912;4.494;2023-03-24T11:13:59;100141.88;;;17.62;100.00
21111;BME280;10713;51.912;4.494;2023-03-24T11:16:34;100149.03;;;17.39;100.00
21111;BME280;10713;51.912;4.494;2023-03-24T11:19:05;100149.25;;;17.02;100.00
21111;BME280;10713;51.912;4.494;2023-03-24T11:21:34;100148.25;;;16.81;100.00
21111;BME280;10713;51.912;4.494;2023-03-24T11:24:10;100145.56;;;16.81;100.00
21111;BME280;10713;51.912;4.494;2023-03-24T11:26:37;100143.75;;;16.81;100.00
21111;BME280;10713;51.912;4.494;2023-03-24T11:29:15;100152.84;;;16.55;100.00
21111;BME280;10713;51.912;4.494;2023-03-24T11:31:50;100155.75;;;16.28;100.00
21111;BME280;10713;51.912;4.494;2023-03-24T11:34:20;100163.13;;;16.00;100.00
21111;BME280;10713;51.912;4.494;2023-03-24T11:36:55;100159.94;;;15.82;100.00
21111;BME280;10713;51.912;4.494;2023-03-24T11:39:22;100163.28;;;16.34;100.00
21111;BME280;10713;51.912;4.494;2023-03-24T11:46:58;100148.94;;;17.41;100.00
21111;BME280;10713;51.912;4.494;2023-03-24T11:49:29;100149.66;;;17.20;100.00
21111;BME280;10713;51.912;4.494;2023-03-24T11:51:56;100155.31;;;17.04;100.00
21111;BME280;10713;51.912;4.494;2023-03-24T11:54:32;100160.63;;;16.93;100.00
21111;BME280;10713;51.912;4.494;2023-03-24T11:57:04;100150.25;;;17.13;100.00
21111;BME280;10713;51.912;4.494;2023-03-24T11:59:43;100153.66;;;17.26;100.00
21111;BME280;10713;51.912;4.494;2023-03-24T12:15:23;100133.53;;;15.92;100.00
21111;BME280;10713;51.912;4.494;2023-03-24T12:18:11;100148.00;;;15.88;100.00
21111;BME280;10713;51.912;4.494;2023-03-24T12:21:00;100145.91;;;15.67;100.00
21111;BME280;10713;51.912;4.494;2023-03-24T12:26:24;100153.53;;;15.22;100.00
21111;BME280;10713;51.912;4.494;2023-03-24T12:29:22;100162.53;;;15.07;100.00
21111;BME280;10713;51.912;4.494;2023-03-24T12:37:40;100154.19;;;14.60;100.00
21111;BME280;10713;51.912;4.494;2023-03-24T12:42:51;100143.78;;;14.57;100.00
21111;BME280;10713;51.912;4.494;2023-03-24T12:48:04;100150.31;;;14.25;100.00
21111;BME280;10713;51.912;4.494;2023-03-24T12:58:53;100153.59;;;14.15;100.00
21111;BME280;10713;51.912;4.494;2023-03-24T13:01:35;100136.81;;;14.15;100.00
21111;BME280;10713;51.912;4.494;2023-03-24T13:06:44;100142.22;;;14.13;100.00
21111;BME280;10713;51.912;4.494;2023-03-24T13:12:00;100146.91;;;13.95;100.00
21111;BME280;10713;51.912;4.494;2023-03-24T13:14:34;100151.53;;;14.06;100.00
21111;BME280;10713;51.912;4.494;2023-03-24T13:17:05;100158.28;;;14.25;100.00
21111;BME280;10713;51.912;4.494;2023-03-24T13:19:33;100156.94;;;14.59;100.00
21111;BME280;10713;51.912;4.494;2023-03-24T13:22:02;100142.53;;;14.76;100.00
21111;BME280;10713;51.912;4.494;2023-03-24T13:24:31;100139.78;;;14.90;100.00
21111;BME280;10713;51.912;4.494;2023-03-24T13:27:22;100125.22;;;15.21;100.00
21111;BME280;10713;51.912;4.494;2023-03-24T13:32:48;100108.44;;;15.21;100.00
21111;BME280;10713;51.912;4.494;2023-03-24T13:38:07;100120.03;;;15.07;100.00
21111;BME280;10713;51.912;4.494;2023-03-24T13:40:39;100114.28;;;15.13;100.00
21111;BME280;10713;51.912;4.494;2023-03-24T13:43:10;100114.50;;;15.10;100.00
21111;BME280;10713;51.912;4.494;2023-03-24T13:45:47;100118.75;;;15.00;100.00
21111;BME280;10713;51.912;4.494;2023-03-24T13:48:37;100114.50;;;15.23;100.00
21111;BME280;10713;51.912;4.494;2023-03-24T13:54:20;100107.34;;;15.10;100.00
21111;BME280;10713;51.912;4.494;2023-03-24T13:56:52;100115.34;;;14.98;100.00
21111;BME280;10713;51.912;4.494;2023-03-24T14:12:52;100104.41;;;14.77;100.00
21111;BME280;10713;51.912;4.494;2023-03-24T14:15:26;100106.38;;;14.73;100.00
21111;BME280;10713;51.912;4.494;2023-03-24T14:18:12;100091.09;;;14.64;100.00
21111;BME280;10713;51.912;4.494;2023-03-24T14:20:43;100092.13;;;14.61;100.00
21111;BME280;10713;51.912;4.494;2023-03-24T14:23:47;100096.81;;;14.71;100.00
21111;BME280;10713;51.912;4.494;2023-03-24T14:28:46;100101.53;;;14.80;100.00
21111;BME280;10713;51.912;4.494;2023-03-24T14:33:59;100096.53;;;14.88;100.00
21111;BME280;10713;51.912;4.494;2023-03-24T14:36:33;100096.09;;;14.81;100.00
21111;BME280;10713;51.912;4.494;2023-03-24T14:41:35;100100.44;;;14.57;100.00
21111;BME280;10713;51.912;4.494;2023-03-24T14:44:04;100099.91;;;14.52;100.00
21111;BME280;10713;51.912;4.494;2023-03-24T14:46:44;100104.06;;;14.41;100.00
21111;BME280;10713;51.912;4.494;2023-03-24T14:49:19;100101.94;;;14.34;100.00
21111;BME280;10713;51.912;4.494;2023-03-24T14:54:43;100102.59;;;14.10;100.00
21111;BME280;10713;51.912;4.494;2023-03-24T14:57:29;100103.56;;;14.09;100.00
21111;BME280;10713;51.912;4.494;2023-03-24T15:05:23;100099.41;;;14.05;100.00
21111;BME280;10713;51.912;4.494;2023-03-24T15:10:48;100097.63;;;14.06;100.00
21111;BME280;10713;51.912;4.494;2023-03-24T15:15:46;100090.59;;;14.05;100.00
21111;BME280;10713;51.912;4.494;2023-03-24T15:18:16;100090.22;;;14.11;100.00
21111;BME280;10713;51.912;4.494;2023-03-24T15:20:44;100088.28;;;14.13;100.00
21111;BME280;10713;51.912;4.494;2023-03-24T15:23:16;100094.44;;;14.13;100.00
21111;BME280;10713;51.912;4.494;2023-03-24T15:25:42;100087.63;;;14.09;100.00
21111;BME280;10713;51.912;4.494;2023-03-24T15:28:28;100088.03;;;14.03;100.00
21111;BME280;10713;51.912;4.494;2023-03-24T15:30:55;100092.88;;;14.11;100.00
21111;BME280;10713;51.912;4.494;2023-03-24T15:33:21;100088.63;;;14.21;100.00
21111;BME280;10713;51.912;4.494;2023-03-24T15:35:56;100079.91;;;14.19;100.00